createdAt,value
2017-12-12T00:00:40.418Z,0.0
2017-12-12T00:01:40.426Z,0.0
2017-12-12T00:02:40.189Z,0.0
2017-12-12T00:03:40.244Z,0.0
2017-12-12T00:04:40.380Z,0.0
2017-12-12T00:05:40.217Z,0.0
2017-12-12T00:06:41.691Z,0.0
2017-12-12T00:07:40.216Z,0.0
2017-12-12T00:08:40.177Z,0.0
2017-12-12T00:09:40.660Z,0.0
2017-12-12T00:10:40.212Z,0.0
2017-12-12T00:11:39.979Z,0.0
2017-12-12T00:12:40.530Z,0.0
2017-12-12T00:13:40.535Z,0.0
2017-12-12T00:14:40.174Z,0.0
2017-12-12T00:15:40.659Z,0.0
2017-12-12T00:16:40.196Z,0.0
2017-12-12T00:17:40.222Z,0.0
2017-12-12T00:18:40.183Z,0.0
2017-12-12T00:19:40.229Z,0.0
2017-12-12T00:20:40.466Z,0.0
2017-12-12T00:21:40.635Z,0.0
2017-12-12T00:22:40.477Z,0.8
2017-12-12T00:23:41.171Z,0.8
2017-12-12T00:24:40.203Z,0.8
2017-12-12T00:25:40.252Z,0.8
2017-12-12T00:26:40.257Z,0.8
2017-12-12T00:27:40.270Z,0.0
2017-12-12T00:28:40.197Z,0.0
2017-12-12T00:29:40.282Z,0.0
2017-12-12T00:30:40.228Z,0.0
2017-12-12T00:31:40.512Z,0.0
2017-12-12T00:32:40.328Z,0.0
2017-12-12T00:33:40.529Z,0.0
2017-12-12T00:34:40.486Z,1.1
2017-12-12T00:35:41.113Z,1.1
2017-12-12T00:36:40.036Z,1.1
2017-12-12T00:37:40.579Z,0.2
2017-12-12T00:38:40.072Z,0.2
2017-12-12T00:39:40.544Z,0.2
2017-12-12T00:40:40.235Z,0.0
2017-12-12T00:41:40.284Z,0.0
2017-12-12T00:42:40.792Z,0.0
2017-12-12T00:43:40.299Z,0.0
2017-12-12T00:44:57.434Z,0.0
2017-12-12T00:45:40.243Z,0.0
2017-12-12T00:46:40.245Z,0.0
2017-12-12T00:47:40.352Z,0.2
2017-12-12T00:48:40.251Z,0.2
2017-12-12T00:49:41.727Z,0.2
2017-12-12T00:50:40.298Z,0.0
2017-12-12T00:51:40.350Z,0.0
2017-12-12T00:52:40.750Z,0.0
2017-12-12T00:53:40.348Z,0.0
2017-12-12T00:54:40.500Z,0.0
2017-12-12T00:55:40.283Z,0.0
2017-12-12T00:56:40.137Z,0.0
2017-12-12T00:57:40.425Z,0.0
2017-12-12T00:58:40.231Z,0.0
2017-12-12T00:59:40.579Z,0.0
2017-12-12T01:00:40.302Z,0.2
2017-12-12T01:01:40.008Z,0.2
2017-12-12T01:02:40.207Z,1.1
2017-12-12T01:03:40.098Z,1.1
2017-12-12T01:05:40.566Z,1.3
2017-12-12T01:06:40.578Z,1.3
2017-12-12T01:07:40.559Z,1.3
2017-12-12T01:08:40.275Z,1.1
2017-12-12T01:09:40.335Z,1.1
2017-12-12T01:10:40.531Z,1.1
2017-12-12T01:11:40.600Z,1.1
2017-12-12T01:12:40.116Z,1.1
2017-12-12T01:13:40.092Z,2.5
2017-12-12T01:14:40.292Z,2.5
2017-12-12T01:15:40.130Z,4.4
2017-12-12T01:16:40.291Z,4.4
2017-12-12T01:17:40.035Z,4.4
2017-12-12T01:18:40.573Z,3.6
2017-12-12T01:19:40.065Z,3.6
2017-12-12T01:20:40.759Z,2.7
2017-12-12T01:21:40.350Z,2.7
2017-12-12T01:22:40.085Z,2.7
2017-12-12T01:23:40.886Z,1.6
2017-12-12T01:24:40.096Z,1.6
2017-12-12T01:27:42.411Z,0.5
2017-12-12T01:28:40.295Z,2.5
2017-12-12T01:29:40.154Z,2.5
2017-12-12T01:30:40.575Z,2.7
2017-12-12T01:31:40.113Z,2.7
2017-12-12T01:32:40.333Z,2.7
2017-12-12T01:33:40.578Z,3.8
2017-12-12T01:34:40.325Z,3.8
2017-12-12T01:35:40.374Z,5.0
2017-12-12T01:36:40.301Z,5.0
2017-12-12T01:37:40.319Z,5.0
2017-12-12T01:38:40.126Z,4.1
2017-12-12T01:39:40.342Z,4.1
2017-12-12T01:40:40.578Z,4.1
2017-12-12T01:41:40.324Z,5.5
2017-12-12T01:42:40.604Z,5.5
2017-12-12T01:43:40.342Z,4.7
2017-12-12T01:44:40.625Z,4.7
2017-12-12T01:45:40.104Z,4.7
2017-12-12T01:46:40.663Z,4.1
2017-12-12T01:47:40.361Z,4.1
2017-12-12T01:48:41.354Z,4.7
2017-12-12T01:49:42.659Z,4.7
2017-12-12T01:50:40.351Z,4.7
2017-12-12T01:51:40.403Z,4.7
2017-12-12T01:52:40.644Z,4.7
2017-12-12T01:53:40.364Z,3.8
2017-12-12T01:54:40.350Z,3.8
2017-12-12T01:55:40.362Z,3.8
2017-12-12T01:56:40.365Z,1.3
2017-12-12T01:57:40.275Z,1.3
2017-12-12T01:58:40.613Z,0.2
2017-12-12T01:59:40.190Z,0.2
2017-12-12T02:00:40.403Z,0.2
2017-12-12T02:01:40.396Z,1.6
2017-12-12T02:02:40.121Z,1.6
2017-12-12T02:03:40.784Z,1.1
2017-12-12T02:04:40.376Z,1.1
2017-12-12T02:05:40.417Z,1.1
2017-12-12T02:06:40.162Z,1.1
2017-12-12T02:07:40.669Z,1.1
2017-12-12T02:08:40.160Z,1.1
2017-12-12T02:09:40.660Z,0.0
2017-12-12T02:10:40.406Z,0.0
2017-12-12T02:11:40.164Z,0.0
2017-12-12T02:12:40.420Z,0.0
2017-12-12T02:13:40.439Z,0.0
2017-12-12T02:14:40.359Z,0.0
2017-12-12T02:15:40.673Z,0.0
2017-12-12T02:16:40.418Z,0.2
2017-12-12T02:17:40.174Z,0.2
2017-12-12T02:18:40.435Z,0.2
2017-12-12T02:19:40.706Z,0.0
2017-12-12T02:20:40.660Z,0.0
2017-12-12T02:21:40.401Z,0.0
2017-12-12T02:22:40.646Z,0.0
2017-12-12T02:23:40.193Z,0.0
2017-12-12T02:24:40.166Z,0.0
2017-12-12T02:25:40.424Z,0.0
2017-12-12T02:26:40.209Z,0.8
2017-12-12T02:27:40.205Z,0.8
2017-12-12T02:28:40.703Z,0.8
2017-12-12T02:29:40.452Z,0.2
2017-12-12T02:30:40.455Z,0.2
2017-12-12T02:31:40.436Z,0.2
2017-12-12T02:32:40.438Z,0.2
2017-12-12T02:33:40.202Z,0.2
2017-12-12T02:34:40.281Z,0.0
2017-12-12T02:35:40.291Z,0.0
2017-12-12T02:36:40.252Z,0.0
2017-12-12T02:37:40.482Z,0.0
2017-12-12T02:38:40.454Z,0.0
2017-12-12T02:39:40.699Z,0.0
2017-12-12T02:40:40.846Z,0.0
2017-12-12T02:41:41.040Z,0.0
2017-12-12T02:42:40.674Z,1.6
2017-12-12T02:43:40.273Z,1.6
2017-12-12T02:44:40.468Z,19.4
2017-12-12T02:45:40.724Z,19.4
2017-12-12T02:46:40.467Z,19.4
2017-12-12T02:47:40.465Z,5.8
2017-12-12T02:48:40.452Z,5.8
2017-12-12T02:49:40.490Z,6.9
2017-12-12T02:50:40.691Z,6.9
2017-12-12T02:51:40.181Z,6.9
2017-12-12T02:52:40.471Z,7.5
2017-12-12T02:53:40.714Z,7.5
2017-12-12T02:54:40.233Z,27.7
2017-12-12T02:55:40.436Z,27.7
2017-12-12T02:56:40.479Z,27.7
2017-12-12T02:57:40.451Z,11.3
2017-12-12T02:58:40.505Z,11.3
2017-12-12T02:59:40.719Z,32.2
2017-12-12T03:00:40.476Z,32.2
2017-12-12T03:01:40.486Z,32.2
2017-12-12T03:02:40.466Z,8.3
2017-12-12T03:04:40.519Z,8.8
2017-12-12T03:05:40.291Z,8.8
2017-12-12T03:06:40.472Z,8.8
2017-12-12T03:07:40.251Z,8.6
2017-12-12T03:08:40.238Z,8.6
2017-12-12T03:09:40.779Z,8.6
2017-12-12T03:10:40.532Z,10.5
2017-12-12T03:11:40.280Z,10.5
2017-12-12T03:12:40.756Z,10.5
2017-12-12T03:13:40.468Z,10.5
2017-12-12T03:14:40.432Z,10.5
2017-12-12T03:15:40.846Z,45.2
2017-12-12T03:16:40.493Z,45.2
2017-12-12T03:17:40.632Z,12.5
2017-12-12T03:18:40.509Z,12.5
2017-12-12T03:19:40.341Z,12.5
2017-12-12T03:20:40.528Z,11.9
2017-12-12T03:21:40.494Z,11.9
2017-12-12T03:22:40.305Z,15.8
2017-12-12T03:23:40.519Z,15.8
2017-12-12T03:24:40.761Z,15.8
2017-12-12T03:25:40.303Z,11.9
2017-12-12T03:26:40.276Z,11.9
2017-12-12T03:27:41.329Z,50.2
2017-12-12T03:28:40.297Z,50.2
2017-12-12T03:29:40.792Z,50.2
2017-12-12T03:30:40.818Z,17.2
2017-12-12T03:31:40.524Z,17.2
2017-12-12T03:32:40.841Z,20.2
2017-12-12T03:33:40.537Z,20.2
2017-12-12T03:34:40.547Z,20.2
2017-12-12T03:35:40.290Z,17.5
2017-12-12T03:36:40.563Z,17.5
2017-12-12T03:37:40.334Z,20.2
2017-12-12T03:38:40.827Z,20.2
2017-12-12T03:39:40.319Z,20.2
2017-12-12T03:40:40.484Z,17.7
2017-12-12T03:41:40.778Z,17.7
2017-12-12T03:42:40.810Z,17.7
2017-12-12T03:43:40.553Z,13.6
2017-12-12T03:44:40.601Z,13.6
2017-12-12T03:45:40.788Z,18.0
2017-12-12T03:46:40.541Z,18.0
2017-12-12T03:47:40.772Z,18.0
2017-12-12T03:48:40.339Z,11.6
2017-12-12T03:49:40.843Z,11.6
2017-12-12T03:50:40.548Z,15.2
2017-12-12T03:51:40.570Z,15.2
2017-12-12T03:52:40.358Z,15.2
2017-12-12T03:53:40.577Z,15.2
2017-12-12T03:54:40.763Z,15.2
2017-12-12T03:55:40.784Z,15.5
2017-12-12T03:56:40.557Z,15.5
2017-12-12T03:57:40.876Z,15.5
2017-12-12T03:58:40.347Z,14.7
2017-12-12T03:59:40.576Z,14.7
2017-12-12T04:00:40.597Z,20.0
2017-12-12T04:01:40.840Z,20.0
2017-12-12T04:02:40.601Z,20.0
2017-12-12T04:03:40.571Z,17.2
2017-12-12T04:04:40.327Z,17.2
2017-12-12T04:05:40.827Z,17.2
2017-12-12T04:07:40.375Z,17.2
2017-12-12T04:08:40.592Z,19.1
2017-12-12T04:09:40.867Z,19.1
2017-12-12T04:10:40.853Z,19.1
2017-12-12T04:11:40.649Z,14.4
2017-12-12T04:12:41.058Z,14.4
2017-12-12T04:13:40.861Z,16.1
2017-12-12T04:14:40.888Z,16.1
2017-12-12T04:16:40.912Z,22.2
2017-12-12T04:17:40.600Z,22.2
2017-12-12T04:18:40.881Z,18.0
2017-12-12T04:19:40.411Z,18.0
2017-12-12T04:20:40.627Z,18.0
2017-12-12T04:21:40.599Z,22.2
2017-12-12T04:22:40.951Z,22.2
2017-12-12T04:23:40.601Z,62.5
2017-12-12T04:24:40.624Z,62.5
2017-12-12T04:25:40.602Z,62.5
2017-12-12T04:26:40.876Z,75.2
2017-12-12T04:27:40.618Z,75.2
2017-12-12T04:28:40.889Z,16.9
2017-12-12T04:29:40.408Z,16.9
2017-12-12T04:30:40.574Z,16.9
2017-12-12T04:31:40.727Z,21.6
2017-12-12T04:32:40.442Z,21.6
2017-12-12T04:33:40.452Z,21.6
2017-12-12T04:34:40.376Z,21.6
2017-12-12T04:35:40.862Z,21.6
2017-12-12T04:36:40.638Z,22.7
2017-12-12T04:37:40.885Z,22.7
2017-12-12T04:38:40.460Z,18.8
2017-12-12T04:39:40.706Z,18.8
2017-12-12T04:40:40.662Z,18.8
2017-12-12T04:41:40.668Z,13.3
2017-12-12T04:42:40.929Z,13.3
2017-12-12T04:43:40.428Z,13.3
2017-12-12T04:44:40.930Z,20.2
2017-12-12T04:45:40.664Z,20.2
2017-12-12T04:46:40.683Z,16.3
2017-12-12T04:47:40.651Z,16.3
2017-12-12T04:48:40.666Z,16.3
2017-12-12T04:49:40.468Z,16.6
2017-12-12T04:50:40.731Z,16.6
2017-12-12T04:51:40.658Z,16.3
2017-12-12T04:52:40.922Z,16.3
2017-12-12T04:53:40.668Z,16.3
2017-12-12T04:54:40.456Z,84.1
2017-12-12T04:55:40.685Z,84.1
2017-12-12T04:56:40.720Z,16.3
2017-12-12T04:57:40.912Z,16.3
2017-12-12T04:59:40.945Z,62.2
2017-12-12T05:00:40.973Z,62.2
2017-12-12T05:01:40.478Z,15.5
2017-12-12T05:02:40.712Z,15.5
2017-12-12T05:03:40.735Z,15.5
2017-12-12T05:05:40.697Z,20.8
2017-12-12T05:06:40.443Z,15.8
2017-12-12T05:07:40.939Z,15.8
2017-12-12T05:08:40.900Z,15.8
2017-12-12T05:09:40.668Z,15.2
2017-12-12T05:10:40.962Z,15.2
2017-12-12T05:11:40.448Z,15.2
2017-12-12T05:12:40.952Z,52.7
2017-12-12T05:13:40.688Z,52.7
2017-12-12T05:14:40.471Z,52.7
2017-12-12T05:15:40.710Z,52.7
2017-12-12T05:16:40.957Z,52.7
2017-12-12T05:17:40.669Z,16.3
2017-12-12T05:18:40.528Z,16.3
2017-12-12T05:19:40.715Z,80.5
2017-12-12T05:21:40.543Z,80.5
2017-12-12T05:22:40.750Z,13.8
2017-12-12T05:23:41.024Z,13.8
2017-12-12T05:24:40.987Z,22.2
2017-12-12T05:25:41.026Z,22.2
2017-12-12T05:26:40.499Z,22.2
2017-12-12T05:27:40.737Z,20.0
2017-12-12T05:28:40.723Z,20.0
2017-12-12T05:29:41.007Z,19.1
2017-12-12T05:30:40.585Z,19.1
2017-12-12T05:31:41.002Z,19.1
2017-12-12T05:32:40.742Z,21.6
2017-12-12T05:33:41.021Z,21.6
2017-12-12T05:34:40.747Z,17.5
2017-12-12T05:35:40.824Z,17.5
2017-12-12T05:36:40.754Z,17.5
2017-12-12T05:37:40.806Z,18.0
2017-12-12T05:38:41.026Z,18.0
2017-12-12T05:39:40.711Z,15.5
2017-12-12T05:40:40.762Z,15.5
2017-12-12T05:41:41.088Z,15.5
2017-12-12T05:42:40.761Z,17.7
2017-12-12T05:43:41.229Z,17.7
2017-12-12T05:44:41.535Z,17.7
2017-12-12T05:45:42.058Z,17.5
2017-12-12T05:46:41.941Z,17.5
2017-12-12T05:47:40.897Z,16.6
2017-12-12T05:48:40.608Z,16.6
2017-12-12T05:49:40.747Z,16.6
2017-12-12T05:50:41.021Z,71.6
2017-12-12T05:51:41.024Z,71.6
2017-12-12T05:53:47.414Z,20.8
2017-12-12T05:55:40.817Z,20.8
2017-12-12T05:56:40.838Z,20.8
2017-12-12T05:57:40.750Z,15.8
2017-12-12T05:58:40.832Z,15.8
2017-12-12T05:59:40.909Z,15.8
2017-12-12T06:00:41.037Z,21.6
2017-12-12T06:01:41.045Z,21.6
2017-12-12T06:02:40.805Z,19.4
2017-12-12T06:03:41.330Z,19.4
2017-12-12T06:04:40.776Z,19.4
2017-12-12T06:05:40.812Z,18.3
2017-12-12T06:06:40.578Z,18.3
2017-12-12T06:07:40.818Z,21.3
2017-12-12T06:08:40.606Z,21.3
2017-12-12T06:09:41.123Z,21.3
2017-12-12T06:10:41.106Z,14.7
2017-12-12T06:11:40.577Z,14.7
2017-12-12T06:12:41.082Z,14.7
2017-12-12T06:13:40.588Z,18.8
2017-12-12T06:14:40.619Z,18.8
2017-12-12T06:15:40.805Z,17.5
2017-12-12T06:16:40.676Z,17.5
2017-12-12T06:17:40.863Z,17.5
2017-12-12T06:18:40.827Z,17.2
2017-12-12T06:19:40.643Z,17.2
2017-12-12T06:20:41.147Z,15.0
2017-12-12T06:21:40.833Z,15.0
2017-12-12T06:22:40.788Z,15.0
2017-12-12T06:23:40.597Z,16.1
2017-12-12T06:24:40.656Z,16.1
2017-12-12T06:25:40.914Z,19.4
2017-12-12T06:26:40.867Z,19.4
2017-12-12T06:27:40.896Z,19.4
2017-12-12T06:28:41.140Z,20.8
2017-12-12T06:29:41.119Z,20.8
2017-12-12T06:30:41.092Z,21.6
2017-12-12T06:31:40.838Z,21.6
2017-12-12T06:32:41.091Z,21.6
2017-12-12T06:33:40.862Z,21.3
2017-12-12T06:34:40.783Z,21.3
2017-12-12T06:35:41.101Z,21.3
2017-12-12T06:36:40.879Z,21.3
2017-12-12T06:37:40.797Z,21.3
2017-12-12T06:38:41.813Z,19.1
2017-12-12T06:39:41.112Z,19.1
2017-12-12T06:40:40.873Z,10.5
2017-12-12T06:41:40.827Z,10.5
2017-12-12T06:42:40.941Z,10.5
2017-12-12T06:43:40.896Z,11.9
2017-12-12T06:44:40.650Z,11.9
2017-12-12T06:45:40.868Z,11.9
2017-12-12T06:46:41.322Z,14.4
2017-12-12T06:47:41.119Z,14.4
2017-12-12T06:49:40.651Z,10.2
2017-12-12T06:50:40.885Z,10.2
2017-12-12T06:51:41.106Z,13.8
2017-12-12T06:53:40.656Z,13.6
2017-12-12T06:54:41.158Z,13.6
2017-12-12T06:55:40.673Z,13.6
2017-12-12T06:56:41.251Z,14.7
2017-12-12T06:57:40.909Z,14.7
2017-12-12T06:58:40.647Z,15.0
2017-12-12T06:59:41.055Z,15.0
2017-12-12T07:00:41.187Z,15.0
2017-12-12T07:01:41.152Z,51.9
2017-12-12T07:02:40.663Z,51.9
2017-12-12T07:03:41.159Z,16.3
2017-12-12T07:04:40.736Z,16.3
2017-12-12T07:05:40.699Z,16.3
2017-12-12T07:06:40.943Z,15.0
2017-12-12T07:07:40.915Z,15.0
2017-12-12T07:08:40.715Z,15.8
2017-12-12T07:09:40.938Z,15.8
2017-12-12T07:11:40.755Z,17.7
2017-12-12T07:12:40.952Z,17.7
2017-12-12T07:13:40.922Z,17.7
2017-12-12T07:14:41.715Z,15.2
2017-12-12T07:15:42.491Z,15.2
2017-12-12T07:16:41.377Z,15.2
2017-12-12T07:17:41.221Z,15.2
2017-12-12T07:18:41.304Z,15.2
2017-12-12T07:19:41.781Z,14.4
2017-12-12T07:20:40.781Z,14.4
2017-12-12T07:21:40.995Z,15.8
2017-12-12T07:22:42.606Z,15.8
2017-12-12T07:24:40.785Z,17.2
2017-12-12T07:26:40.842Z,10.0
2017-12-12T07:27:42.129Z,10.0
2017-12-12T07:28:41.935Z,10.0
2017-12-12T07:29:42.124Z,11.3
2017-12-12T07:30:41.833Z,11.3
2017-12-12T07:31:42.179Z,11.6
2017-12-12T07:32:40.949Z,11.6
2017-12-12T07:33:41.317Z,11.6
2017-12-12T07:34:40.973Z,13.8
2017-12-12T07:35:42.016Z,13.8
2017-12-12T07:36:41.782Z,15.0
2017-12-12T07:38:41.103Z,15.0
2017-12-12T07:40:41.291Z,9.7
2017-12-12T07:41:41.262Z,13.3
2017-12-12T07:42:40.795Z,13.3
2017-12-12T07:43:41.248Z,13.3
2017-12-12T07:44:41.058Z,11.9
2017-12-12T07:45:41.004Z,11.9
2017-12-12T07:46:41.341Z,11.9
2017-12-12T07:48:41.247Z,11.3
2017-12-12T07:49:40.992Z,10.5
2017-12-12T07:50:41.706Z,10.5
2017-12-12T07:51:41.691Z,10.5
2017-12-12T07:52:40.846Z,10.2
2017-12-12T07:53:41.017Z,10.2
2017-12-12T07:54:41.961Z,9.7
2017-12-12T07:55:41.040Z,9.7
2017-12-12T07:56:41.619Z,9.7
2017-12-12T07:57:43.882Z,9.7
2017-12-12T07:58:44.239Z,9.7
2017-12-12T07:59:44.328Z,8.0
2017-12-12T08:00:46.487Z,8.0
2017-12-12T08:01:52.327Z,8.0
2017-12-12T08:02:43.738Z,10.0
2017-12-12T08:03:43.052Z,10.0
2017-12-12T08:04:41.377Z,8.6
2017-12-12T08:05:41.888Z,8.6
2017-12-12T08:06:42.021Z,8.6
2017-12-12T08:07:41.122Z,8.3
2017-12-12T08:08:40.868Z,8.3
2017-12-12T08:09:40.822Z,9.7
2017-12-12T08:10:41.033Z,9.7
2017-12-12T08:11:40.840Z,9.7
2017-12-12T08:12:40.805Z,9.7
2017-12-12T08:13:41.229Z,9.7
2017-12-12T08:14:41.104Z,9.7
2017-12-12T08:15:41.343Z,7.2
2017-12-12T08:16:41.048Z,7.2
2017-12-12T08:17:43.066Z,6.1
2017-12-12T08:18:41.393Z,6.1
2017-12-12T08:19:42.283Z,6.1
2017-12-12T08:20:41.089Z,26.9
2017-12-12T08:21:41.534Z,26.9
2017-12-12T08:22:40.869Z,8.0
2017-12-12T08:23:41.070Z,8.0
2017-12-12T08:24:41.071Z,8.0
2017-12-12T08:26:41.330Z,8.0
2017-12-12T08:27:40.882Z,7.5
2017-12-12T08:28:40.927Z,7.5
2017-12-12T08:29:40.967Z,7.5
2017-12-12T08:30:41.058Z,7.2
2017-12-12T08:31:41.070Z,7.2
2017-12-12T08:32:42.156Z,7.5
2017-12-12T08:33:44.329Z,7.5
2017-12-12T08:34:43.927Z,7.5
2017-12-12T08:35:41.377Z,6.1
2017-12-12T08:36:41.158Z,6.1
2017-12-12T08:37:41.446Z,6.1
2017-12-12T08:38:41.048Z,6.1
2017-12-12T08:39:40.904Z,6.1
2017-12-12T08:40:41.101Z,5.5
2017-12-12T08:41:41.197Z,5.5
2017-12-12T08:42:43.093Z,5.5
2017-12-12T08:43:42.668Z,5.5
2017-12-12T08:44:41.101Z,5.5
2017-12-12T08:45:41.112Z,6.6
2017-12-12T08:46:43.740Z,6.6
2017-12-12T08:47:41.181Z,6.6
2017-12-12T08:48:41.827Z,6.9
2017-12-12T08:49:42.184Z,6.9
2017-12-12T08:50:41.554Z,6.9
2017-12-12T08:51:41.140Z,6.9
2017-12-12T08:52:41.155Z,6.9
2017-12-12T08:54:40.992Z,4.7
2017-12-12T08:55:41.221Z,30.5
2017-12-12T08:56:41.465Z,30.5
2017-12-12T08:57:46.984Z,30.5
2017-12-12T08:58:40.968Z,5.5
2017-12-12T08:59:41.117Z,5.5
2017-12-12T09:00:41.005Z,9.4
2017-12-12T09:01:48.580Z,9.4
2017-12-12T09:02:46.242Z,9.4
2017-12-12T09:03:41.261Z,5.8
2017-12-12T09:04:41.399Z,5.8
2017-12-12T09:05:41.707Z,34.1
2017-12-12T09:06:41.143Z,34.1
2017-12-12T09:07:40.937Z,34.1
2017-12-12T09:08:40.929Z,6.9
2017-12-12T09:09:43.480Z,6.9
2017-12-12T09:10:41.455Z,8.8
2017-12-12T09:11:41.480Z,8.8
2017-12-12T09:12:41.419Z,8.8
2017-12-12T09:13:41.506Z,6.6
2017-12-12T09:14:41.659Z,6.6
2017-12-12T09:15:41.228Z,6.6
2017-12-12T09:16:41.963Z,8.6
2017-12-12T09:17:40.958Z,8.6
2017-12-12T09:18:41.451Z,8.6
2017-12-12T09:19:42.492Z,8.6
2017-12-12T09:20:41.201Z,8.6
2017-12-12T09:21:41.249Z,8.8
2017-12-12T09:23:40.994Z,10.5
2017-12-12T09:24:41.280Z,10.5
2017-12-12T09:25:41.507Z,10.5
2017-12-12T09:26:41.522Z,10.0
2017-12-12T09:27:41.350Z,10.0
2017-12-12T09:28:41.862Z,9.4
2017-12-12T09:29:41.476Z,9.4
2017-12-12T09:30:41.261Z,9.4
2017-12-12T09:31:41.296Z,10.2
2017-12-12T09:32:41.264Z,10.2
2017-12-12T09:33:41.460Z,12.2
2017-12-12T09:34:41.042Z,12.2
2017-12-12T09:35:41.068Z,12.2
2017-12-12T09:36:41.993Z,12.7
2017-12-12T09:37:41.276Z,12.7
2017-12-12T09:38:41.030Z,7.5
2017-12-12T09:39:41.511Z,7.5
2017-12-12T09:40:41.196Z,7.5
2017-12-12T09:41:41.214Z,7.2
2017-12-12T09:43:41.026Z,10.0
2017-12-12T09:44:41.237Z,10.0
2017-12-12T09:45:41.068Z,10.0
2017-12-12T09:46:41.224Z,9.7
2017-12-12T09:47:41.011Z,9.7
2017-12-12T09:48:41.262Z,9.7
2017-12-12T09:50:41.300Z,8.6
2017-12-12T09:51:41.289Z,8.3
2017-12-12T09:52:41.025Z,8.3
2017-12-12T09:53:41.257Z,8.3
2017-12-12T09:54:41.535Z,27.7
2017-12-12T09:55:41.282Z,27.7
2017-12-12T09:56:41.298Z,8.6
2017-12-12T09:57:41.542Z,8.6
2017-12-12T09:58:41.265Z,8.6
2017-12-12T09:59:41.497Z,8.6
2017-12-12T10:00:41.230Z,8.6
2017-12-12T10:02:41.938Z,7.7
2017-12-12T10:04:41.490Z,5.0
2017-12-12T10:05:41.013Z,5.0
2017-12-12T10:06:41.305Z,27.5
2017-12-12T10:07:41.864Z,27.5
2017-12-12T10:08:41.292Z,27.5
2017-12-12T10:09:41.322Z,6.3
2017-12-12T10:10:41.142Z,6.3
2017-12-12T10:11:41.304Z,5.0
2017-12-12T10:12:41.308Z,5.0
2017-12-12T10:13:41.268Z,5.0
2017-12-12T10:14:41.051Z,5.8
2017-12-12T10:15:41.071Z,5.8
2017-12-12T10:16:41.259Z,5.8
2017-12-12T10:17:41.050Z,8.3
2017-12-12T10:18:41.340Z,8.3
2017-12-12T10:19:41.274Z,22.2
2017-12-12T10:20:41.265Z,22.2
2017-12-12T10:21:41.262Z,22.2
2017-12-12T10:22:41.300Z,6.9
2017-12-12T10:23:41.342Z,6.9
2017-12-12T10:24:41.102Z,7.5
2017-12-12T10:25:41.119Z,7.5
2017-12-12T10:26:41.172Z,7.5
2017-12-12T10:27:41.081Z,11.9
2017-12-12T10:28:41.320Z,11.9
2017-12-12T10:29:41.127Z,7.2
2017-12-12T10:30:41.344Z,7.2
2017-12-12T10:31:41.334Z,7.2
2017-12-12T10:32:41.533Z,8.8
2017-12-12T10:33:41.126Z,8.8
2017-12-12T10:34:41.159Z,7.2
2017-12-12T10:35:41.576Z,7.2
2017-12-12T10:36:42.599Z,7.2
2017-12-12T10:37:41.325Z,7.2
2017-12-12T10:38:41.645Z,7.2
2017-12-12T10:39:41.649Z,7.2
2017-12-12T10:41:41.739Z,7.2
2017-12-12T10:42:41.609Z,9.1
2017-12-12T10:43:41.329Z,9.1
2017-12-12T10:44:41.984Z,43.0
2017-12-12T10:46:01.031Z,43.0
2017-12-12T10:46:41.402Z,43.0
2017-12-12T10:48:41.904Z,50.5
2017-12-12T10:49:41.372Z,50.5
2017-12-12T10:50:41.127Z,41.1
2017-12-12T10:51:41.200Z,41.1
2017-12-12T10:52:41.454Z,27.2
2017-12-12T10:54:00.224Z,27.2
2017-12-12T10:54:42.170Z,27.2
2017-12-12T10:55:41.647Z,8.6
2017-12-12T10:57:41.200Z,41.1
2017-12-12T10:58:41.271Z,41.1
2017-12-12T10:59:41.558Z,41.1
2017-12-12T11:00:41.361Z,13.6
2017-12-12T11:01:41.350Z,13.6
2017-12-12T11:02:41.719Z,12.5
2017-12-12T11:03:41.222Z,12.5
2017-12-12T11:04:41.212Z,12.5
2017-12-12T11:05:41.360Z,13.3
2017-12-12T11:06:41.688Z,13.3
2017-12-12T11:07:41.423Z,8.8
2017-12-12T11:08:42.406Z,8.8
2017-12-12T11:09:41.214Z,8.8
2017-12-12T11:10:41.450Z,6.9
2017-12-12T11:11:43.965Z,6.9
2017-12-12T11:13:41.187Z,11.3
2017-12-12T11:14:41.404Z,11.3
2017-12-12T11:15:44.652Z,11.3
2017-12-12T11:16:43.579Z,11.3
2017-12-12T11:17:57.914Z,11.3
2017-12-12T11:19:51.468Z,10.2
2017-12-12T11:20:43.080Z,10.2
2017-12-12T11:21:45.840Z,10.2
2017-12-12T11:22:41.927Z,10.2
2017-12-12T11:23:41.387Z,10.2
2017-12-12T11:24:41.263Z,10.2
2017-12-12T11:25:41.261Z,12.5
2017-12-12T11:26:41.249Z,12.5
2017-12-12T11:27:41.276Z,12.5
2017-12-12T11:28:41.443Z,11.3
2017-12-12T11:29:42.371Z,11.3
2017-12-12T11:30:42.153Z,5.5
2017-12-12T11:31:41.446Z,5.5
2017-12-12T11:32:41.738Z,5.5
2017-12-12T11:33:41.456Z,6.3
2017-12-12T11:34:41.773Z,6.3
2017-12-12T11:35:41.416Z,6.6
2017-12-12T11:36:41.681Z,6.6
2017-12-12T11:37:41.524Z,6.6
2017-12-12T11:38:41.441Z,9.4
2017-12-12T11:39:41.676Z,9.4
2017-12-12T11:40:41.250Z,33.0
2017-12-12T11:42:41.491Z,33.0
2017-12-12T11:43:41.763Z,6.1
2017-12-12T11:44:42.135Z,6.1
2017-12-12T11:45:42.426Z,30.8
2017-12-12T11:46:41.320Z,30.8
2017-12-12T11:47:41.497Z,30.8
2017-12-12T11:48:42.243Z,11.3
2017-12-12T11:49:41.740Z,11.3
2017-12-12T11:50:41.525Z,11.3
2017-12-12T11:51:41.464Z,7.2
2017-12-12T11:52:41.465Z,7.2
2017-12-12T11:53:42.011Z,7.2
2017-12-12T11:54:41.583Z,7.2
2017-12-12T11:55:41.906Z,7.2
2017-12-12T11:56:41.505Z,5.5
2017-12-12T11:57:41.479Z,5.5
2017-12-12T11:58:41.985Z,6.9
2017-12-12T11:59:41.557Z,6.9
2017-12-12T12:00:41.839Z,6.9
2017-12-12T12:01:41.259Z,6.9
2017-12-12T12:02:41.778Z,6.9
2017-12-12T12:03:41.754Z,6.9
2017-12-12T12:04:42.799Z,6.9
2017-12-12T12:05:41.750Z,6.9
2017-12-12T12:06:41.774Z,7.2
2017-12-12T12:08:41.523Z,8.8
2017-12-12T12:09:41.507Z,8.8
2017-12-12T12:10:41.500Z,8.8
2017-12-12T12:11:41.819Z,7.5
2017-12-12T12:12:41.316Z,7.5
2017-12-12T12:13:41.777Z,5.5
2017-12-12T12:14:41.515Z,5.5
2017-12-12T12:15:42.136Z,5.5
2017-12-12T12:16:45.064Z,5.8
2017-12-12T12:17:48.592Z,5.8
2017-12-12T12:18:55.114Z,5.8
2017-12-12T12:19:43.244Z,32.2
2017-12-12T12:20:43.455Z,32.2
2017-12-12T12:21:41.569Z,8.6
2017-12-12T12:22:41.851Z,8.6
2017-12-12T12:23:41.554Z,8.6
2017-12-12T12:24:41.823Z,7.5
2017-12-12T12:25:41.299Z,7.5
2017-12-12T12:26:41.552Z,5.0
2017-12-12T12:27:41.541Z,5.0
2017-12-12T12:28:41.568Z,5.0
2017-12-12T12:29:41.778Z,6.9
2017-12-12T12:31:41.571Z,5.5
2017-12-12T12:32:41.729Z,5.5
2017-12-12T12:33:41.568Z,5.5
2017-12-12T12:34:41.883Z,7.2
2017-12-12T12:35:41.551Z,7.2
2017-12-12T12:36:41.810Z,6.1
2017-12-12T12:37:42.592Z,6.1
2017-12-12T12:38:41.847Z,6.1
2017-12-12T12:39:41.887Z,7.5
2017-12-12T12:40:41.371Z,7.5
2017-12-12T12:41:41.585Z,7.5
2017-12-12T12:42:44.712Z,7.5
2017-12-12T12:43:41.950Z,7.5
2017-12-12T12:44:41.447Z,6.6
2017-12-12T12:46:41.388Z,5.5
2017-12-12T12:47:41.553Z,5.5
2017-12-12T12:48:41.337Z,5.5
2017-12-12T12:49:45.519Z,5.2
2017-12-12T12:50:41.610Z,5.2
2017-12-12T12:51:41.606Z,5.2
2017-12-12T12:52:41.874Z,4.7
2017-12-12T12:53:41.862Z,4.7
2017-12-12T12:54:41.849Z,2.7
2017-12-12T12:56:41.387Z,2.7
2017-12-12T12:57:42.171Z,3.6
2017-12-12T12:58:41.893Z,3.6
2017-12-12T12:59:41.556Z,4.7
2017-12-12T13:01:41.548Z,4.7
2017-12-12T13:02:44.216Z,16.9
2017-12-12T13:03:41.579Z,16.9
2017-12-12T13:04:42.190Z,4.4
2017-12-12T13:05:41.901Z,4.4
2017-12-12T13:06:41.861Z,4.4
2017-12-12T13:07:41.913Z,5.0
2017-12-12T13:08:41.602Z,5.0
2017-12-12T13:09:42.314Z,6.1
2017-12-12T13:10:41.364Z,6.1
2017-12-12T13:11:41.894Z,6.1
2017-12-12T13:12:42.907Z,6.3
2017-12-12T13:13:41.625Z,6.3
2017-12-12T13:14:42.626Z,4.7
2017-12-12T13:15:41.579Z,4.7
2017-12-12T13:16:41.609Z,4.7
2017-12-12T13:17:42.616Z,3.0
2017-12-12T13:18:42.345Z,3.0
2017-12-12T13:19:41.601Z,3.0
2017-12-12T13:20:41.855Z,2.5
2017-12-12T13:21:42.206Z,2.5
2017-12-12T13:23:41.652Z,2.5
2017-12-12T13:25:41.624Z,2.7
2017-12-12T13:26:42.411Z,2.7
2017-12-12T13:27:42.302Z,2.7
2017-12-12T13:28:42.092Z,2.7
2017-12-12T13:30:41.624Z,1.6
2017-12-12T13:31:42.483Z,1.6
2017-12-12T13:32:44.312Z,1.9
2017-12-12T13:33:41.888Z,1.9
2017-12-12T13:34:41.423Z,1.9
2017-12-12T13:35:43.479Z,1.9
2017-12-12T13:36:41.929Z,1.9
2017-12-12T13:37:44.107Z,2.7
2017-12-12T13:38:49.161Z,2.7
2017-12-12T13:40:46.522Z,2.7
2017-12-12T13:41:47.848Z,2.7
2017-12-12T13:42:44.756Z,2.5
2017-12-12T13:43:52.008Z,2.5
2017-12-12T13:44:58.659Z,2.5
2017-12-12T13:46:00.224Z,4.1
2017-12-12T13:47:01.815Z,4.1
2017-12-12T13:48:10.798Z,7.5
2017-12-12T13:48:55.405Z,7.5
2017-12-12T13:49:52.243Z,7.5
2017-12-12T13:50:41.677Z,8.0
2017-12-12T13:51:41.617Z,8.0
2017-12-12T13:52:41.706Z,8.0
2017-12-12T13:53:41.690Z,7.7
2017-12-12T13:54:41.488Z,7.7
2017-12-12T13:55:41.689Z,26.6
2017-12-12T13:56:41.915Z,26.6
2017-12-12T13:57:41.704Z,26.6
2017-12-12T13:58:41.675Z,6.6
2017-12-12T13:59:41.695Z,6.6
2017-12-12T14:00:42.078Z,6.3
2017-12-12T14:01:42.152Z,6.3
2017-12-12T14:02:43.558Z,6.3
2017-12-12T14:04:55.245Z,6.3
2017-12-12T14:05:51.636Z,8.8
2017-12-12T14:06:47.825Z,8.8
2017-12-12T14:11:26.447Z,8.8
2017-12-12T14:11:56.954Z,8.8
2017-12-12T14:12:48.174Z,8.6
2017-12-12T14:13:42.422Z,36.3
2017-12-12T14:15:11.708Z,36.3
2017-12-12T14:15:43.617Z,8.8
2017-12-12T14:17:00.749Z,8.8
2017-12-12T14:17:45.211Z,8.8
2017-12-12T14:18:51.331Z,8.8